CheckWX is a tool to help pilots better visualize weather data.  It is not intended as a substitute for an official pre-flight weather briefing.

15:05:25 UTC

KBMC METAR
Brigham City Airport
Brigham City, Utah, USA
Current

30 mins ago

KBMC 231435Z AUTO 09019G28KT 10SM SCT050 BKN070 BKN090 09/M02 A2975 RMK AO1 T00931019
Observed
May-23 @ 14:35 UTC
Wind
  • 090° at 19 KTS
  • Gusting to 28 KTS
Visibility
10 SM
Flight Rules
VFR
Cloud Levels
  • Scattered at 5,000' AGL
  • Broken at 7,000' AGL
  • Broken at 9,000' AGL
Temperature
C / 48°F
Dewpoint
-2°C / 28°F
Humidity
46%
Altimeter
29.75" Hg
Pressure
1007.42 hPa
Previous

50 mins ago

KBMC 231415Z AUTO 10011G36KT 10SM SCT050 BKN070 OVC090 09/M02 A2976 RMK AO1 T00901019
Observed
May-23 @ 14:15 UTC
Wind
  • 100° at 11 KTS
  • Gusting to 36 KTS
Visibility
10 SM
Flight Rules
VFR
Cloud Levels
  • Scattered at 5,000' AGL
  • Broken at 7,000' AGL
  • Overcast at 9,000' AGL
Temperature
C / 48°F
Dewpoint
-2°C / 28°F
Humidity
46%
Altimeter
29.76" Hg
Pressure
1007.82 hPa
Previous

1 hour ago

KBMC 231355Z AUTO 09023G36KT 10SM SCT070 OVC090 09/M02 A2974 RMK AO1 T00881018
Observed
May-23 @ 13:55 UTC
Wind
  • 090° at 23 KTS
  • Gusting to 36 KTS
Visibility
10 SM
Flight Rules
VFR
Cloud Levels
  • Scattered at 7,000' AGL
  • Overcast at 9,000' AGL
Temperature
C / 48°F
Dewpoint
-2°C / 28°F
Humidity
46%
Altimeter
29.74" Hg
Pressure
1007.12 hPa